SVEN weather

Encontrados Airport
Zulia, Venezuela

Public forecast

Using degrees Celsius for public forecast. Weather courtesy of forecast.io.

METAR (pilot weather report)

Report is more than 6 hours old.

Closest report is Santa B├írbara del Zulia Airport, 18.5 nm (34.2 km) ESE. Retrieved 2016/06/08 18:00 UTC (3 years ago):

SVSZ 081800Z 00000KT CAVOK XX/XX Q1012

TAF (pilot weather forecast)

Forecast is more than 12 hours old.

Closest forecast is Camilo Daza International Airport, 68.5 nm (126.8 km) SSW. Retrieved 2019/03/24 12:00 UTC (1 day ago):

TAF SKCC 241100Z 2412/2512 VRB02KT 9000 SCT020 SCT090 TEMPO 2412/2413 8000 VCFG -DZ SCT012 BECMG 2413/2415 36012KT TEMPO 2419/2422 8000 RA SCT020TCU TEMPO 2500/2502 7000 VCFG -DZ SCT015 BECMG 2503/2505 VRB02KT TEMPO 2510/2512 7000 VCFG SCT013 TX31/2419Z TN22/2511Z